M C B H Kaneohe Bay, HI (96863)

2:59 PM HST on July 29, 2016 (GMT -1000)
Kailua | | Change Station

Elev 20 ft 21.40 °N, 157.75 °W | Updated 11 seconds ago

Overcast
Overcast
77.4 °F
Feels Like 79 °F
N
4.7
Wind Variable Wind from NNE

Today
High -- | Low -- °F
--% Chance of Precip.
Yesterday
High -- | Low -- °F
Precip. -- in
Pressure 29.97 in
Visibility 10.0 miles
Clouds Few 2800 ft
Scattered Clouds 5000 ft
Overcast 6000 ft
Heat Index 79 °F
Dew Point 70 °F
Humidity 77%
Rainfall 0.06 in
Snow Depth Not available.
6:03 AM 7:11 PM
Waning Crescent, 17% visible
METAR PHNG 292357Z AUTO 02014KT 10SM FEW028 SCT050 OVC060 28/21 A2999 RMK AO2 SLP149 T02830206 10294 20267 58013 $
Pressure 29.97 in
Visibility 10.0 miles
Clouds Few 2800 ft
Scattered Clouds 5000 ft
Overcast 6000 ft
Heat Index 79 °F
Dew Point 70 °F
Humidity 77%
Rainfall 0.06 in
Snow Depth Not available.
6:03 AM 7:11 PM
Waning Crescent, 17% visible
METAR PHNG 292357Z AUTO 02014KT 10SM FEW028 SCT050 OVC060 28/21 A2999 RMK AO2 SLP149 T02830206 10294 20267 58013 $

10-Day Weather Forecast

Almanac

Astronomy

Jul. 29, 2016 Rise Set
Actual Time
Civil Twilight
Nautical Twilight
Astronomical Twilight
Moon
Length of Visible Light
Length of Day
Tomorrow will be .
, % of the Moon is Illuminated

Today's Extremes

State Highs State Lows

Community

WunderPhotos

Upload Photos

1,928,457 photos uploaded!

WunderBlog® & News

Nearby

Air Quality

  Air Quality AQ Index Pollutant
Not available.

Snow Depth

Station Depth Elevation

Earthquake Activity

City Distance Mag. Time & Date
Minimum magnitude displayed is 2.5.

Coastal Water Temperatures

Place Temperature

Stations

Nearby Weather Stations

Station Location Temp. Windchill Dew Point Humidity Wind Precip. Elev Updated Type
                   

Watches & Warnings

There are currently no watches in effect.